Time;durP1;ratioP1;P1;durP2;ratioP2;P2;SDS_P1;SDS_P2;PMS_P1;PMS_P2;Temp;Humidity;BMP_temperature;BMP_pressure;BME280_temperature;BME280_humidity;BME280_pressure;Samples;Min_cycle;Max_cycle;Signal;HPM_P1;HPM_P2
2023/09/15 00:00:10;;;;;;;14.77;9.15;;;;;;;21.31;100.00;98860.00;5014832;28;20046;-92
2023/09/15 00:02:38;;;;;;;13.95;8.38;;;;;;;21.30;100.00;98850.19;5015226;28;20109;-92
2023/09/15 00:05:07;;;;;;;13.13;9.15;;;;;;;21.62;100.00;98907.47;5032627;28;20459;-92
2023/09/15 00:07:32;;;;;;;15.63;8.32;;;;;;;21.28;100.00;98879.19;5016440;28;20061;-91
2023/09/15 00:10:00;;;;;;;13.88;8.10;;;;;;;21.32;100.00;98888.81;5014967;28;20499;-93
2023/09/15 00:12:29;;;;;;;15.18;8.13;;;;;;;21.26;100.00;98903.63;5030439;28;20038;-94
2023/09/15 00:14:54;;;;;;;18.27;9.05;;;;;;;21.40;100.00;98918.88;5016720;28;20069;-93
2023/09/15 00:17:24;;;;;;;17.63;10.13;;;;;;;21.42;100.00;98884.50;5014929;28;20120;-94
2023/09/15 00:19:52;;;;;;;17.85;8.60;;;;;;;21.69;100.00;98899.78;5005302;28;20049;-94
2023/09/15 00:22:18;;;;;;;16.00;8.88;;;;;;;21.56;100.00;98880.84;5000816;28;20121;-94
2023/09/15 00:24:43;;;;;;;13.75;8.30;;;;;;;21.57;100.00;98885.28;5007489;28;20069;-92
2023/09/15 00:27:09;;;;;;;13.68;9.63;;;;;;;21.64;100.00;98899.22;5012600;28;20057;-93
2023/09/15 00:29:35;;;;;;;16.45;9.95;;;;;;;21.68;100.00;98901.59;5000009;28;20510;-91
2023/09/15 00:32:01;;;;;;;21.77;9.57;;;;;;;21.42;100.00;98892.63;5000967;28;20046;-92
2023/09/15 00:34:29;;;;;;;17.48;10.82;;;;;;;21.43;100.00;98912.44;5023980;28;20038;-92
2023/09/15 00:36:57;;;;;;;14.13;8.27;;;;;;;21.37;100.00;98902.88;5002155;28;20128;-91
2023/09/15 00:39:24;;;;;;;15.15;9.50;;;;;;;21.37;100.00;98900.16;5003053;28;20041;-92
2023/09/15 00:41:50;;;;;;;14.75;9.23;;;;;;;21.44;100.00;98904.19;5008390;28;20034;-92
2023/09/15 00:44:16;;;;;;;15.75;9.07;;;;;;;21.37;100.00;98919.09;5001747;28;20040;-92
2023/09/15 00:46:42;;;;;;;14.30;7.82;;;;;;;21.22;100.00;98923.72;5003623;28;20093;-92
2023/09/15 00:49:08;;;;;;;14.93;8.88;;;;;;;21.21;100.00;98918.41;5003326;28;20091;-91
2023/09/15 00:51:34;;;;;;;16.45;9.10;;;;;;;21.14;100.00;98912.56;5004125;28;20038;-91
2023/09/15 00:54:01;;;;;;;16.00;10.30;;;;;;;21.12;100.00;98923.50;5004518;28;20467;-92
2023/09/15 00:56:27;;;;;;;21.13;9.93;;;;;;;20.83;100.00;98897.56;5004643;28;20399;-92
2023/09/15 00:58:53;;;;;;;17.45;9.27;;;;;;;20.75;100.00;98921.53;5005620;28;20041;-92
2023/09/15 01:01:20;;;;;;;19.92;10.18;;;;;;;20.68;100.00;98916.53;5005361;28;20507;-92
2023/09/15 01:03:47;;;;;;;17.73;10.05;;;;;;;20.71;100.00;98894.72;5000904;28;20480;-92
2023/09/15 01:06:15;;;;;;;16.42;10.13;;;;;;;21.11;100.00;98940.69;5011175;28;20519;-91
2023/09/15 01:08:41;;;;;;;15.07;8.82;;;;;;;20.86;100.00;98929.78;5005040;28;20065;-92
2023/09/15 01:11:09;;;;;;;15.27;8.93;;;;;;;20.81;100.00;98900.34;5002522;28;20136;-91
2023/09/15 01:13:36;;;;;;;15.40;9.13;;;;;;;20.85;100.00;98926.22;5008403;28;20072;-92
2023/09/15 01:16:18;;;;;;;16.15;9.98;;;;;;;20.92;100.00;98916.72;5000688;28;20043;-91
2023/09/15 01:18:51;;;;;;;17.88;9.95;;;;;;;20.87;100.00;98916.16;4997362;28;20503;-91
2023/09/15 01:21:35;;;;;;;14.60;9.20;;;;;;;21.11;100.00;98924.44;4999360;28;20026;-91
2023/09/15 01:24:22;;;;;;;14.43;9.10;;;;;;;21.04;100.00;98898.81;4998054;28;20044;-92
2023/09/15 01:27:05;;;;;;;18.10;10.32;;;;;;;21.31;100.00;98927.63;5016630;28;20892;-92
2023/09/15 01:29:43;;;;;;;15.05;9.00;;;;;;;21.31;100.00;98930.34;5016434;28;20046;-93
2023/09/15 01:32:12;;;;;;;19.20;9.25;;;;;;;21.36;100.00;98924.59;5007772;28;20133;-91
2023/09/15 01:34:39;;;;;;;18.38;9.68;;;;;;;21.24;100.00;98902.00;4999249;28;20042;-92
2023/09/15 01:37:05;;;;;;;15.48;9.13;;;;;;;21.45;100.00;98915.91;5002866;28;20089;-93
2023/09/15 01:39:31;;;;;;;14.77;8.93;;;;;;;21.10;100.00;98873.16;4999933;28;20053;-92
2023/09/15 01:41:57;;;;;;;15.63;8.90;;;;;;;21.08;100.00;98885.97;5000112;28;20038;-92
2023/09/15 01:44:23;;;;;;;14.18;8.18;;;;;;;20.84;100.00;98872.25;4999135;28;20093;-92
2023/09/15 01:46:51;;;;;;;14.00;8.55;;;;;;;21.14;100.00;98912.56;4997598;28;20042;-92
2023/09/15 01:49:18;;;;;;;13.32;7.63;;;;;;;20.81;100.00;98888.69;4999244;28;20042;-92
2023/09/15 01:51:45;;;;;;;13.57;8.82;;;;;;;20.74;100.00;98887.38;4996299;28;20034;-91
2023/09/15 01:54:12;;;;;;;14.77;8.45;;;;;;;21.01;100.00;98901.72;4999280;28;20037;-93
2023/09/15 01:56:37;;;;;;;15.68;8.65;;;;;;;20.81;100.00;98865.22;4999088;28;20121;-92
2023/09/15 01:59:03;;;;;;;13.52;8.07;;;;;;;20.90;100.00;98867.28;4983682;28;20573;-91
2023/09/15 02:01:29;;;;;;;12.60;8.00;;;;;;;20.93;100.00;98886.03;4992790;28;20483;-92
2023/09/15 02:03:56;;;;;;;12.85;8.10;;;;;;;20.63;100.00;98825.94;5006414;28;21598;-92
2023/09/15 02:06:22;;;;;;;13.45;8.65;;;;;;;20.35;100.00;98837.69;4998939;28;20550;-92
2023/09/15 02:08:48;;;;;;;14.60;7.65;;;;;;;20.53;100.00;98848.13;4999240;28;20062;-90
2023/09/15 02:11:14;;;;;;;19.33;8.18;;;;;;;20.75;100.00;98872.88;4999395;28;20046;-91
2023/09/15 02:13:42;;;;;;;14.48;7.45;;;;;;;20.90;100.00;98880.81;4997157;28;20042;-92
2023/09/15 02:16:08;;;;;;;13.63;8.23;;;;;;;20.60;100.00;98890.97;4997599;28;20488;-92
2023/09/15 02:18:33;;;;;;;14.77;8.60;;;;;;;20.27;100.00;98873.28;5006831;28;20048;-91
2023/09/15 02:21:00;;;;;;;13.63;8.65;;;;;;;;;;5036047;28;20407;-92
2023/09/15 02:23:26;;;;;;;14.18;7.93;;;;;;;20.49;100.00;98868.22;5033904;28;20100;-92
2023/09/15 02:25:52;;;;;;;11.93;7.85;;;;;;;20.49;100.00;98880.84;5033452;28;20041;-91
2023/09/15 02:28:19;;;;;;;14.35;8.73;;;;;;;20.49;100.00;98856.53;5033851;28;20099;-93
2023/09/15 02:30:45;;;;;;;15.77;9.63;;;;;;;20.21;100.00;98850.28;5033792;28;20558;-91
2023/09/15 02:33:10;;;;;;;14.02;9.23;;;;;;;20.58;100.00;98888.41;5034499;28;20033;-92
2023/09/15 02:35:37;;;;;;;13.85;9.23;;;;;;;20.31;100.00;98882.94;5034676;28;20500;-91
2023/09/15 02:38:04;;;;;;;15.80;10.60;;;;;;;20.21;100.00;98841.28;5034629;28;20037;-90
2023/09/15 02:40:30;;;;;;;16.67;11.15;;;;;;;20.44;100.00;98880.28;5033374;28;20396;-91
2023/09/15 02:42:56;;;;;;;16.15;10.30;;;;;;;20.49;100.00;98891.66;5034695;28;20072;-92
2023/09/15 02:45:22;;;;;;;18.95;10.27;;;;;;;20.56;100.00;98878.59;5032388;28;20150;-91
2023/09/15 02:47:48;;;;;;;16.42;10.18;;;;;;;20.53;100.00;98877.84;5034498;28;20495;-91
2023/09/15 02:50:14;;;;;;;19.02;11.05;;;;;;;20.38;100.00;98884.25;5034437;28;20124;-92
2023/09/15 02:52:40;;;;;;;18.30;11.27;;;;;;;20.03;100.00;98836.13;5034069;28;20549;-93
2023/09/15 02:55:08;;;;;;;17.65;11.52;;;;;;;20.28;100.00;98870.50;5033855;28;20414;-91
2023/09/15 02:57:34;;;;;;;15.85;9.13;;;;;;;20.53;100.00;98890.47;5034642;28;20046;-93
2023/09/15 03:00:00;;;;;;;20.52;9.77;;;;;;;20.00;100.00;98848.97;5034253;28;20057;-92
2023/09/15 03:02:26;;;;;;;17.55;9.45;;;;;;;20.09;100.00;98857.31;5033672;28;20038;-92
2023/09/15 03:04:52;;;;;;;17.00;9.68;;;;;;;20.13;100.00;98876.91;5033463;28;20088;-92
2023/09/15 03:07:17;;;;;;;13.93;8.82;;;;;;;19.97;100.00;98849.16;5035428;28;20049;-93
2023/09/15 03:09:44;;;;;;;16.00;9.60;;;;;;;20.11;100.00;98873.44;5036860;28;20034;-92
2023/09/15 03:12:12;;;;;;;17.77;9.68;;;;;;;19.94;100.00;98865.53;5036240;28;20040;-93
2023/09/15 03:14:39;;;;;;;17.67;9.68;;;;;;;20.10;100.00;98887.88;5034744;28;20034;-92
2023/09/15 03:17:05;;;;;;;16.27;9.77;;;;;;;19.88;100.00;98837.97;5033871;28;20147;-92
2023/09/15 03:19:32;;;;;;;18.98;10.35;;;;;;;19.94;100.00;98858.31;5038291;28;20064;-94
2023/09/15 03:21:58;;;;;;;13.88;8.82;;;;;;;19.94;100.00;98850.22;5058408;28;20849;-93
2023/09/15 03:24:24;;;;;;;16.92;9.63;;;;;;;20.08;100.00;98850.19;5036942;28;20029;-92
2023/09/15 03:26:50;;;;;;;16.90;9.38;;;;;;;20.29;100.00;98864.13;5036872;28;20037;-93
2023/09/15 03:29:17;;;;;;;16.88;9.40;;;;;;;20.25;100.00;98869.81;5037320;28;20095;-91
2023/09/15 03:31:43;;;;;;;16.15;9.30;;;;;;;20.21;100.00;98861.06;5040468;28;20037;-92
2023/09/15 03:34:08;;;;;;;14.80;8.52;;;;;;;20.24;100.00;98868.97;5037087;28;20502;-93
2023/09/15 03:36:34;;;;;;;14.68;8.65;;;;;;;19.86;100.00;98836.34;5036949;28;20033;-92
2023/09/15 03:39:00;;;;;;;16.23;8.85;;;;;;;20.11;100.00;98858.09;5037365;28;20009;-92
2023/09/15 03:41:27;;;;;;;13.77;8.48;;;;;;;20.14;100.00;98851.63;5037001;28;20487;-91
2023/09/15 03:43:53;;;;;;;13.20;8.15;;;;;;;20.33;100.00;98864.78;5037220;28;20043;-91
2023/09/15 03:46:20;;;;;;;19.70;8.75;;;;;;;20.43;100.00;98854.25;5036058;28;20127;-93
2023/09/15 03:48:46;;;;;;;13.45;8.20;;;;;;;20.28;100.00;98827.28;5036613;28;20029;-94
2023/09/15 03:51:12;;;;;;;17.23;8.88;;;;;;;20.36;100.00;98851.06;5037683;28;20044;-93
2023/09/15 03:53:37;;;;;;;15.82;8.65;;;;;;;19.99;100.00;98829.19;5037271;28;20029;-93
2023/09/15 03:56:04;;;;;;;16.65;8.65;;;;;;;19.90;100.00;98794.69;5036988;28;20067;-92
2023/09/15 03:58:29;;;;;;;15.35;8.30;;;;;;;19.85;100.00;98819.28;5042096;28;20045;-93
2023/09/15 04:00:55;;;;;;;12.25;7.97;;;;;;;20.20;100.00;98871.97;5035066;28;20033;-92
2023/09/15 04:03:22;;;;;;;13.10;7.93;;;;;;;20.20;100.00;98864.72;5035914;28;20044;-92
2023/09/15 04:05:49;;;;;;;14.50;8.85;;;;;;;20.05;100.00;98819.81;5040331;28;20421;-93
2023/09/15 04:08:15;;;;;;;11.05;7.65;;;;;;;19.93;100.00;98863.78;5037985;28;20032;-93
2023/09/15 04:10:41;;;;;;;12.40;8.18;;;;;;;19.71;100.00;98830.09;5040782;28;20036;-92
2023/09/15 04:13:07;;;;;;;13.48;8.68;;;;;;;19.79;100.00;98852.06;5039700;28;20045;-93
2023/09/15 04:15:33;;;;;;;12.07;8.30;;;;;;;19.89;100.00;98858.59;5040055;28;20064;-92
2023/09/15 04:17:59;;;;;;;13.32;7.90;;;;;;;19.54;100.00;98809.56;5041807;28;20045;-92
2023/09/15 04:20:26;;;;;;;16.48;8.13;;;;;;;19.77;100.00;98843.19;5039194;28;20082;-92
2023/09/15 04:22:52;;;;;;;14.32;7.45;;;;;;;19.85;100.00;98840.00;5040983;28;20072;-91
2023/09/15 04:25:19;;;;;;;11.35;7.18;;;;;;;19.44;100.00;98786.81;5039661;28;20057;-92
2023/09/15 04:27:45;;;;;;;12.75;6.90;;;;;;;19.54;100.00;98798.78;5039766;28;20045;-92
2023/09/15 04:30:11;;;;;;;11.48;7.22;;;;;;;19.77;100.00;98831.53;5038887;28;20037;-91
2023/09/15 04:32:37;;;;;;;14.73;7.50;;;;;;;19.91;100.00;98847.72;5038496;28;20095;-92
2023/09/15 04:35:05;;;;;;;13.25;7.40;;;;;;;19.89;100.00;98846.94;5038963;28;20037;-92
2023/09/15 04:37:32;;;;;;;13.75;7.00;;;;;;;19.66;100.00;98843.84;5049224;28;20064;-91
2023/09/15 04:39:58;;;;;;;12.68;7.10;;;;;;;19.68;100.00;98849.16;5038548;28;20041;-91
2023/09/15 04:42:24;;;;;;;12.25;7.20;;;;;;;19.58;100.00;98835.38;5039426;28;20445;-90
2023/09/15 04:44:50;;;;;;;11.90;7.45;;;;;;;19.64;100.00;98853.00;5039758;28;20045;-92
2023/09/15 04:47:29;;;;;;;12.10;6.72;;;;;;;19.84;100.00;98873.34;5038200;28;20047;-92
2023/09/15 04:49:54;;;;;;;10.98;6.68;;;;;;;20.11;100.00;98871.59;5038237;28;20039;-92
2023/09/15 04:52:20;;;;;;;14.80;7.53;;;;;;;20.23;100.00;98869.94;5038784;28;20041;-92
2023/09/15 04:54:47;;;;;;;11.20;6.55;;;;;;;20.18;100.00;98874.75;5042262;28;20060;-92
2023/09/15 04:57:13;;;;;;;11.80;6.43;;;;;;;20.21;100.00;98855.69;5038482;28;20510;-93
2023/09/15 04:59:39;;;;;;;12.88;6.78;;;;;;;19.83;100.00;98848.19;5039349;28;20045;-92
2023/09/15 05:02:07;;;;;;;11.73;6.35;;;;;;;19.95;100.00;98878.94;5038357;28;20043;-93
2023/09/15 05:04:33;;;;;;;9.48;5.70;;;;;;;20.03;100.00;98864.94;5046256;28;20067;-92
2023/09/15 05:06:59;;;;;;;11.77;6.40;;;;;;;20.13;100.00;98868.78;5038412;28;20132;-91
2023/09/15 05:09:26;;;;;;;9.43;6.00;;;;;;;20.20;100.00;98863.88;5036736;28;20068;-91
2023/09/15 05:11:53;;;;;;;9.30;5.93;;;;;;;20.09;100.00;98851.91;5037281;28;20057;-92
2023/09/15 05:14:19;;;;;;;9.82;6.40;;;;;;;20.06;100.00;98841.34;5037389;28;20041;-91
2023/09/15 05:16:45;;;;;;;10.77;5.95;;;;;;;20.11;100.00;98830.22;5036357;28;20041;-92
2023/09/15 05:19:14;;;;;;;9.00;5.82;;;;;;;19.94;100.00;98860.16;5038675;28;20044;-91
2023/09/15 05:21:40;;;;;;;10.55;6.18;;;;;;;19.81;100.00;98824.97;5037642;28;20041;-92
2023/09/15 05:24:06;;;;;;;10.70;6.07;;;;;;;20.11;100.00;98850.00;5038416;28;20041;-91
2023/09/15 05:26:32;;;;;;;10.07;7.30;;;;;;;20.39;100.00;98883.31;5039354;28;20367;-92
2023/09/15 05:28:59;;;;;;;9.70;6.53;;;;;;;20.11;100.00;98846.44;5059247;28;20037;-93
2023/09/15 05:31:26;;;;;;;10.13;5.65;;;;;;;19.98;100.00;98850.91;5036929;28;20078;-92
2023/09/15 05:33:53;;;;;;;10.02;5.80;;;;;;;19.99;100.00;98869.66;5039788;28;20049;-93
2023/09/15 05:36:19;;;;;;;10.90;6.25;;;;;;;20.15;100.00;98885.75;5060425;28;20057;-93
2023/09/15 05:38:46;;;;;;;10.13;5.88;;;;;;;19.88;100.00;98881.16;5039824;28;20068;-92
2023/09/15 05:41:12;;;;;;;9.70;6.55;;;;;;;19.75;100.00;98887.44;5039917;28;20037;-94
2023/09/15 05:43:37;;;;;;;10.88;5.90;;;;;;;19.71;100.00;98848.97;5067814;28;20035;-93
2023/09/15 05:46:05;;;;;;;11.75;6.18;;;;;;;19.70;100.00;98853.50;5043373;28;20044;-92
2023/09/15 05:48:31;;;;;;;8.52;5.78;;;;;;;20.25;100.00;98896.81;5043769;28;20065;-92
2023/09/15 05:50:57;;;;;;;12.05;5.82;;;;;;;20.23;100.00;98878.03;5039321;28;20071;-93
2023/09/15 05:53:23;;;;;;;10.38;6.05;;;;;;;20.17;100.00;98854.13;5039185;28;20433;-93
2023/09/15 05:55:49;;;;;;;10.07;6.30;;;;;;;19.98;100.00;98840.94;5039597;28;20095;-93
2023/09/15 05:58:14;;;;;;;8.93;5.57;;;;;;;20.35;100.00;98899.81;5039315;28;20036;-95
2023/09/15 06:00:40;;;;;;;13.45;5.85;;;;;;;20.14;100.00;98854.31;5040177;28;20506;-93
2023/09/15 06:03:09;;;;;;;8.10;5.18;;;;;;;20.41;100.00;98859.75;5040611;28;20132;-92
2023/09/15 06:05:35;;;;;;;10.50;5.63;;;;;;;20.64;100.00;98869.06;5039884;28;20033;-94
2023/09/15 06:08:03;;;;;;;9.68;5.45;;;;;;;20.88;100.00;98895.41;5040006;28;20491;-92
2023/09/15 06:10:29;;;;;;;14.02;6.18;;;;;;;20.87;100.00;98875.63;5043484;28;20047;-92
2023/09/15 06:12:55;;;;;;;8.75;5.82;;;;;;;21.02;100.00;98870.16;5040079;28;20037;-92
2023/09/15 06:15:21;;;;;;;9.18;5.45;;;;;;;20.91;100.00;98857.38;5064134;28;20041;-92
2023/09/15 06:17:47;;;;;;;10.75;5.82;;;;;;;20.91;100.00;98851.97;5038840;28;20068;-93
2023/09/15 06:20:15;;;;;;;11.65;6.30;;;;;;;20.80;100.00;98841.03;5035800;28;20423;-92
2023/09/15 06:22:41;;;;;;;9.55;5.25;;;;;;;20.98;100.00;98876.75;5019008;28;20025;-92
2023/09/15 06:25:08;;;;;;;9.02;6.07;;;;;;;21.04;100.00;98882.59;5019373;28;20041;-93
2023/09/15 06:27:33;;;;;;;9.10;5.20;;;;;;;20.67;100.00;98852.66;5017753;28;20037;-93
2023/09/15 06:30:01;;;;;;;9.32;5.13;;;;;;;20.95;100.00;98910.25;5018393;28;20056;-93
2023/09/15 06:32:26;;;;;;;11.93;5.90;;;;;;;20.68;100.00;98907.56;5018292;28;20099;-93
2023/09/15 06:34:52;;;;;;;8.35;5.28;;;;;;;20.99;100.00;98916.31;5019114;28;20041;-94
2023/09/15 06:37:20;;;;;;;12.27;7.05;;;;;;;20.46;100.00;98875.66;5019342;28;20502;-95
2023/09/15 06:39:45;;;;;;;14.27;7.10;;;;;;;20.56;100.00;98897.50;5019373;28;20045;-93
2023/09/15 06:42:11;;;;;;;10.60;6.47;;;;;;;20.81;100.00;98891.38;5019644;28;20041;-95
2023/09/15 06:44:37;;;;;;;13.50;7.60;;;;;;;20.81;100.00;98910.31;5018406;28;20060;-94
2023/09/15 06:47:04;;;;;;;9.70;5.88;;;;;;;20.76;100.00;98893.53;5019235;28;20061;-92
2023/09/15 06:49:31;;;;;;;13.90;7.20;;;;;;;21.10;100.00;98911.91;5019658;28;20047;-95
2023/09/15 06:51:57;;;;;;;13.40;6.70;;;;;;;21.28;100.00;98922.44;5019219;28;20490;-94
2023/09/15 06:54:24;;;;;;;13.18;7.05;;;;;;;20.99;100.00;98881.16;5019300;28;20068;-94
2023/09/15 06:56:50;;;;;;;10.77;6.85;;;;;;;21.51;100.00;98921.75;5019207;28;20087;-94
2023/09/15 06:59:16;;;;;;;14.55;6.72;;;;;;;21.26;100.00;98913.56;5019065;28;20045;-94
2023/09/15 07:01:42;;;;;;;13.07;6.47;;;;;;;21.45;100.00;98908.66;5019057;28;20044;-95
2023/09/15 07:04:10;;;;;;;11.55;6.93;;;;;;;21.15;100.00;98891.81;5019025;28;20053;-94
2023/09/15 07:06:36;;;;;;;11.60;7.35;;;;;;;21.58;100.00;98918.59;5018994;28;20045;-93
2023/09/15 07:09:03;;;;;;;12.77;8.32;;;;;;;21.56;100.00;98934.06;5018044;28;20041;-94
2023/09/15 07:11:30;;;;;;;11.55;7.28;;;;;;;21.51;100.00;98924.47;5019267;28;20053;-94
2023/09/15 07:13:56;;;;;;;12.48;7.15;;;;;;;21.45;100.00;98903.25;5019449;28;20037;-93
2023/09/15 07:16:22;;;;;;;11.93;7.25;;;;;;;21.51;100.00;98889.28;5019265;28;20052;-94
2023/09/15 07:18:48;;;;;;;10.48;6.88;;;;;;;21.78;100.00;98937.03;5018091;28;20562;-95
2023/09/15 07:21:13;;;;;;;13.43;7.18;;;;;;;21.94;100.00;98934.94;5019096;28;20120;-93
2023/09/15 07:23:39;;;;;;;12.50;7.60;;;;;;;22.00;100.00;98921.97;5018353;28;20048;-94
2023/09/15 07:26:05;;;;;;;11.45;7.07;;;;;;;22.49;100.00;98956.38;5017302;28;20506;-93
2023/09/15 07:28:33;;;;;;;11.32;7.05;;;;;;;22.47;100.00;98944.78;5020159;28;20049;-94
2023/09/15 07:31:03;;;;;;;14.25;8.30;;;;;;;22.43;100.00;98937.84;5019411;28;20423;-93
2023/09/15 07:33:29;;;;;;;10.38;7.25;;;;;;;21.95;100.00;98936.69;5017580;28;20549;-92
2023/09/15 07:35:58;;;;;;;12.50;6.53;;;;;;;21.71;100.00;98901.41;5017332;28;20037;-94
2023/09/15 07:38:23;;;;;;;11.02;6.32;;;;;;;21.90;100.00;98955.13;5016870;28;20038;-92
2023/09/15 07:40:49;;;;;;;12.75;8.52;;;;;;;22.01;100.00;98940.81;5021007;28;20431;-92
2023/09/15 07:43:15;;;;;;;12.43;7.00;;;;;;;22.39;100.00;98939.91;5018552;28;20064;-92
2023/09/15 07:45:42;;;;;;;8.95;6.40;;;;;;;22.53;100.00;98937.06;5020185;28;20041;-94
2023/09/15 07:48:08;;;;;;;10.80;6.90;;;;;;;22.67;100.00;98949.59;5019028;28;20048;-93
2023/09/15 07:50:34;;;;;;;12.20;7.40;;;;;;;22.53;100.00;98930.75;5019037;28;20041;-93
2023/09/15 07:53:00;;;;;;;16.95;7.72;;;;;;;22.93;100.00;98949.50;5020621;28;20045;-94
2023/09/15 07:55:26;;;;;;;11.45;7.07;;;;;;;22.87;100.00;98922.84;5036505;28;20048;-93
2023/09/15 07:57:52;;;;;;;10.05;6.18;;;;;;;22.91;100.00;98946.03;5020903;28;20368;-93
2023/09/15 08:00:18;;;;;;;10.50;6.00;;;;;;;23.06;100.00;98936.78;5019699;28;20045;-93
2023/09/15 08:02:45;;;;;;;12.43;6.18;;;;;;;22.44;100.00;98936.88;5020043;28;20037;-92
2023/09/15 08:05:11;;;;;;;12.20;6.07;;;;;;;22.26;100.00;98904.72;5035586;28;20064;-92
2023/09/15 08:07:37;;;;;;;11.60;7.43;;;;;;;22.54;100.00;98951.47;5017824;28;20507;-93
2023/09/15 08:10:04;;;;;;;15.80;7.43;;;;;;;22.87;100.00;98936.41;5020325;28;20041;-95
2023/09/15 08:12:30;;;;;;;9.85;5.82;;;;;;;23.35;100.00;98956.22;5021331;28;20049;-92
2023/09/15 08:14:56;;;;;;;10.77;6.10;;;;;;;23.22;100.00;98932.88;5020901;28;20091;-94
2023/09/15 08:17:22;;;;;;;9.85;6.18;;;;;;;23.42;100.00;98934.06;5019913;28;20068;-93
2023/09/15 08:19:49;;;;;;;17.58;9.73;;;;;;;23.53;100.00;98915.06;5019897;28;20446;-94
2023/09/15 08:22:16;;;;;;;15.20;7.90;;;;;;;23.98;100.00;98958.63;5020944;28;20033;-93
2023/09/15 08:24:41;;;;;;;14.20;7.45;;;;;;;23.01;100.00;98936.25;5035112;28;20061;-93
2023/09/15 08:27:08;;;;;;;10.45;6.72;;;;;;;23.64;100.00;98957.69;5016126;28;20064;-93
2023/09/15 08:29:34;;;;;;;13.65;5.78;;;;;;;23.66;100.00;98937.59;5019999;28;20050;-94
2023/09/15 08:31:59;;;;;;;11.25;6.30;;;;;;;23.49;100.00;98906.34;5018519;28;20041;-92
2023/09/15 08:34:25;;;;;;;9.50;5.10;;;;;;;23.53;100.00;98939.50;5009420;28;20045;-92
2023/09/15 08:36:52;;;;;;;8.10;5.13;;;;;;;24.03;100.00;98944.69;5020219;28;20034;-94
2023/09/15 08:39:19;;;;;;;10.30;4.50;;;;;;;23.69;100.00;98925.63;5019961;28;20030;-93
2023/09/15 08:41:50;;;;;;;7.85;3.83;;;;;;;24.14;100.00;98955.59;5019935;28;20041;-93
2023/09/15 08:44:17;;;;;;;6.88;4.30;;;;;;;24.38;100.00;98926.41;5020069;28;20061;-94
2023/09/15 08:46:45;;;;;;;5.22;3.50;;;;;;;24.03;100.00;98917.53;5019404;28;20029;-93
2023/09/15 08:49:14;;;;;;;8.02;4.15;;;;;;;24.28;100.00;98932.72;5017607;28;20124;-94
2023/09/15 08:51:43;;;;;;;6.75;4.18;;;;;;;24.58;100.00;98923.94;5020524;28;20061;-95
2023/09/15 08:54:11;;;;;;;7.88;4.03;;;;;;;24.94;100.00;98949.06;5018660;28;20046;-94
2023/09/15 08:56:37;;;;;;;6.07;3.58;;;;;;;24.29;100.00;98920.84;5020805;28;20057;-93
2023/09/15 08:59:04;;;;;;;7.05;3.78;;;;;;;24.54;100.00;98928.75;5024560;28;20092;-95
2023/09/15 09:01:30;;;;;;;6.60;3.67;;;;;;;24.77;100.00;98956.78;5021752;28;20491;-94
2023/09/15 09:03:57;;;;;;;9.35;4.40;;;;;;;23.99;100.00;98934.09;5022230;28;20064;-95
2023/09/15 09:06:23;;;;;;;7.60;4.15;;;;;;;24.70;100.00;98941.09;5023547;28;20025;-95
2023/09/15 09:08:50;;;;;;;5.10;3.40;;;;;;;24.60;100.00;98886.63;5022707;28;20033;-95
2023/09/15 09:11:17;;;;;;;4.97;3.25;;;;;;;25.07;100.00;98908.97;5025809;28;20095;-95
2023/09/15 09:13:50;;;;;;;8.88;4.15;;;;;;;25.04;100.00;98892.88;5042392;28;20051;-94
2023/09/15 09:16:16;;;;;;;5.35;3.60;;;;;;;25.29;100.00;98896.28;5025617;28;20075;-94
2023/09/15 09:18:42;;;;;;;5.28;3.55;;;;;;;25.52;100.00;98895.13;5028897;28;20061;-95
2023/09/15 09:21:08;;;;;;;7.75;4.78;;;;;;;25.69;100.00;98890.09;5025446;28;20041;-94
2023/09/15 09:23:34;;;;;;;7.55;4.93;;;;;;;25.82;100.00;98885.28;5028765;28;20049;-94
2023/09/15 09:26:00;;;;;;;9.35;5.47;;;;;;;25.94;100.00;98886.97;5028465;28;20052;-95
2023/09/15 09:28:28;;;;;;;10.25;5.30;;;;;;;26.49;100.00;98948.44;5028202;28;20053;-94
2023/09/15 09:30:55;;;;;;;11.27;5.70;;;;;;;26.11;100.00;98922.72;5027995;28;20181;-94
2023/09/15 09:33:21;;;;;;;7.47;4.38;;;;;;;26.46;100.00;98960.50;5027597;28;20049;-95
2023/09/15 09:35:48;;;;;;;10.45;5.55;;;;;;;26.48;100.00;98895.78;5029544;28;20391;-94
2023/09/15 09:38:15;;;;;;;9.73;4.93;;;;;;;26.82;100.00;98912.66;5028969;28;20091;-96
2023/09/15 09:40:41;;;;;;;10.63;4.75;;;;;;;26.74;99.65;98885.22;5028178;28;20049;-93
2023/09/15 09:43:07;;;;;;;7.78;4.45;;;;;;;26.82;95.78;98919.97;5025821;28;20063;-95
2023/09/15 09:45:35;;;;;;;9.75;5.00;;;;;;;26.62;97.39;98919.09;5024763;28;20132;-94
2023/09/15 09:48:01;;;;;;;8.93;5.13;;;;;;;26.66;99.17;98904.16;5023221;28;20525;-94
2023/09/15 09:50:35;;;;;;;7.70;4.50;;;;;;;26.99;98.06;98921.16;5024364;28;20506;-94
2023/09/15 09:53:07;;;;;;;7.32;4.55;;;;;;;26.99;90.17;98885.66;5023229;28;20119;-93
2023/09/15 09:55:33;;;;;;;10.45;4.35;;;;;;;27.10;95.06;98940.13;5023702;28;20037;-95
2023/09/15 09:58:04;;;;;;;7.10;4.25;;;;;;;27.05;96.36;98907.78;5022369;28;20510;-95
2023/09/15 10:00:35;;;;;;;6.70;4.38;;;;;;;27.05;93.45;98935.09;5015273;28;20064;-93
2023/09/15 10:03:04;;;;;;;7.78;5.38;;;;;;;26.81;93.03;98908.22;5017384;28;20411;-93
2023/09/15 10:05:31;;;;;;;8.10;4.47;;;;;;;26.52;92.52;98907.25;5018708;28;20041;-95
2023/09/15 10:07:58;;;;;;;7.32;4.22;;;;;;;26.78;92.99;98927.59;5019868;28;20095;-95
2023/09/15 10:10:25;;;;;;;9.73;5.28;;;;;;;26.68;91.52;98925.84;5018967;28;20100;-95
2023/09/15 10:12:53;;;;;;;5.97;4.20;;;;;;;26.83;92.59;98911.66;5018512;28;20048;-95
2023/09/15 10:15:22;;;;;;;7.05;4.03;;;;;;;27.06;91.92;98895.00;5014468;28;20038;-94
2023/09/15 10:17:50;;;;;;;8.05;4.30;;;;;;;27.29;88.80;98894.75;5019952;28;20041;-93
2023/09/15 10:20:16;;;;;;;6.65;4.20;;;;;;;27.01;90.82;98925.47;5001334;28;20060;-92
2023/09/15 10:22:42;;;;;;;6.22;4.38;;;;;;;26.83;90.09;98919.00;4999485;28;20044;-93
2023/09/15 10:25:17;;;;;;;8.00;4.80;;;;;;;26.94;86.50;98929.78;4999125;28;20459;-94
2023/09/15 10:27:45;;;;;;;10.40;4.47;;;;;;;27.16;85.66;98914.13;5000908;28;20054;-92
2023/09/15 10:30:11;;;;;;;11.63;5.50;;;;;;;27.41;86.72;98926.34;4998677;28;20382;-93
2023/09/15 10:32:38;;;;;;;6.18;4.05;;;;;;;27.07;83.53;98896.75;4999431;28;20092;-93
2023/09/15 10:35:06;;;;;;;6.43;4.00;;;;;;;26.99;84.97;98888.41;5000178;28;20101;-92
2023/09/15 10:37:33;;;;;;;6.45;3.90;;;;;;;27.31;83.57;98900.94;5009387;28;20073;-92
2023/09/15 10:39:59;;;;;;;5.95;4.18;;;;;;;27.29;83.63;98883.84;5005465;28;20115;-95
2023/09/15 10:42:27;;;;;;;8.10;3.88;;;;;;;27.15;81.19;98898.75;5000193;28;20042;-93
2023/09/15 10:44:53;;;;;;;8.88;4.15;;;;;;;26.96;82.15;98888.69;4999786;28;20084;-93
2023/09/15 10:47:21;;;;;;;8.75;4.43;;;;;;;27.07;84.57;98904.06;4995908;28;20041;-93
2023/09/15 10:49:49;;;;;;;5.90;4.53;;;;;;;27.19;88.61;98906.50;5001098;28;20503;-94
2023/09/15 10:52:16;;;;;;;7.85;4.32;;;;;;;27.20;86.82;98886.38;5001520;28;20128;-93
2023/09/15 10:54:42;;;;;;;9.55;5.20;;;;;;;27.06;85.56;98884.09;4998945;28;20387;-95
2023/09/15 10:57:08;;;;;;;7.75;4.70;;;;;;;27.12;86.05;98888.13;4996129;28;20038;-94
2023/09/15 10:59:37;;;;;;;6.95;4.18;;;;;;;27.19;87.58;98878.34;5001383;28;20042;-94
2023/09/15 11:02:05;;;;;;;8.90;4.45;;;;;;;26.90;86.81;98879.22;4999244;28;20045;-95
2023/09/15 11:04:31;;;;;;;8.55;4.47;;;;;;;27.01;85.12;98862.69;4998373;28;20578;-93
2023/09/15 11:06:57;;;;;;;7.80;4.30;;;;;;;26.91;85.29;98863.69;4998878;28;20041;-94
2023/09/15 11:09:27;;;;;;;9.50;4.32;;;;;;;27.23;81.17;98863.44;4997506;28;20546;-92
2023/09/15 11:11:53;;;;;;;5.53;4.18;;;;;;;27.17;81.60;98881.22;4999363;28;20038;-93
2023/09/15 11:14:20;;;;;;;10.80;4.47;;;;;;;26.68;80.66;98877.59;4996937;28;20129;-95
2023/09/15 11:16:49;;;;;;;7.35;4.78;;;;;;;26.16;84.76;98855.94;4999518;28;20112;-93
2023/09/15 11:19:15;;;;;;;7.32;3.70;;;;;;;26.84;84.82;98857.94;4996306;28;20041;-93